Time;durP1;ratioP1;P1;durP2;ratioP2;P2;SDS_P1;SDS_P2;PMS_P1;PMS_P2;Temp;Humidity;BMP_temperature;BMP_pressure;BME280_temperature;BME280_humidity;BME280_pressure;Samples;Min_cycle;Max_cycle;Signal;HPM_P1;HPM_P2
2023/11/18 00:02:18;;;;;;;29.52;20.08;;;4.30;99.90;;;;;;5137781;27;20030;-44
2023/11/18 00:04:44;;;;;;;28.42;19.88;;;4.30;99.90;;;;;;5156264;27;20070;-42
2023/11/18 00:07:09;;;;;;;31.13;20.60;;;4.20;99.90;;;;;;5156099;27;20075;-42
2023/11/18 00:09:35;;;;;;;35.90;20.45;;;4.30;99.90;;;;;;5156313;27;20034;-42
2023/11/18 00:12:01;;;;;;;32.13;21.30;;;4.30;99.90;;;;;;5156110;27;20115;-41
2023/11/18 00:14:27;;;;;;;35.10;21.77;;;4.30;99.90;;;;;;5151157;27;20508;-41
2023/11/18 00:16:52;;;;;;;30.40;20.10;;;4.30;99.90;;;;;;5156136;27;20062;-42
2023/11/18 00:19:18;;;;;;;35.58;22.02;;;4.20;99.90;;;;;;5151221;27;20054;-42
2023/11/18 00:21:44;;;;;;;32.03;20.95;;;4.30;99.90;;;;;;5155698;27;20039;-43
2023/11/18 00:24:10;;;;;;;36.90;23.05;;;4.30;99.90;;;;;;5156038;27;20038;-41
2023/11/18 00:26:35;;;;;;;31.88;19.98;;;4.30;99.90;;;;;;5156007;27;20473;-43
2023/11/18 00:29:01;;;;;;;40.10;23.85;;;4.30;99.90;;;;;;5155873;27;20043;-43
2023/11/18 00:31:27;;;;;;;35.10;21.45;;;4.30;99.90;;;;;;5155793;27;20035;-44
2023/11/18 00:33:53;;;;;;;30.52;19.73;;;4.30;99.90;;;;;;5137167;27;20384;-43
2023/11/18 00:36:18;;;;;;;32.38;20.60;;;4.30;99.90;;;;;;5155659;27;20041;-41
2023/11/18 00:38:44;;;;;;;30.75;20.85;;;4.30;99.90;;;;;;5155706;27;20034;-43
2023/11/18 00:41:10;;;;;;;29.60;19.98;;;4.30;99.90;;;;;;5155842;27;20050;-43
2023/11/18 00:43:36;;;;;;;34.38;21.95;;;4.30;99.90;;;;;;5155334;27;20038;-43
2023/11/18 00:46:03;;;;;;;37.83;21.90;;;4.30;99.90;;;;;;5144849;27;20147;-46
2023/11/18 00:48:30;;;;;;;37.85;22.05;;;4.30;99.90;;;;;;5155009;27;20049;-43
2023/11/18 00:50:56;;;;;;;38.35;21.02;;;4.40;99.90;;;;;;5145364;27;20403;-45
2023/11/18 00:53:22;;;;;;;34.13;21.73;;;4.30;99.90;;;;;;5136844;27;20492;-42
2023/11/18 00:55:48;;;;;;;34.33;22.27;;;4.30;99.90;;;;;;5144956;27;20035;-45
2023/11/18 00:58:14;;;;;;;36.75;21.40;;;4.30;99.90;;;;;;5155484;27;20480;-43
2023/11/18 01:00:40;;;;;;;38.67;21.95;;;4.30;99.90;;;;;;5155143;27;20152;-42
2023/11/18 01:03:05;;;;;;;40.60;23.08;;;4.30;99.90;;;;;;5149507;27;20133;-44
2023/11/18 01:05:31;;;;;;;39.28;21.75;;;4.30;99.90;;;;;;5155734;27;20463;-44
2023/11/18 01:08:00;;;;;;;43.58;24.23;;;4.30;99.90;;;;;;5155194;27;20126;-47
2023/11/18 01:10:26;;;;;;;40.42;24.15;;;4.30;99.90;;;;;;5155258;27;20039;-46
2023/11/18 01:12:51;;;;;;;41.90;22.20;;;4.30;99.90;;;;;;5155096;27;20038;-42
2023/11/18 01:15:17;;;;;;;41.60;23.05;;;4.30;99.90;;;;;;5146985;27;20393;-43
2023/11/18 01:17:44;;;;;;;41.00;23.85;;;4.30;99.90;;;;;;5151209;27;20503;-45
2023/11/18 01:20:11;;;;;;;44.83;25.58;;;4.30;99.90;;;;;;5151446;27;20487;-43
2023/11/18 01:22:37;;;;;;;42.28;23.20;;;4.30;99.90;;;;;;5149299;27;20046;-41
2023/11/18 01:25:05;;;;;;;39.50;23.67;;;4.30;99.90;;;;;;5154886;27;20030;-42
2023/11/18 01:27:33;;;;;;;45.20;24.98;;;4.30;99.90;;;;;;5154497;27;20043;-42
2023/11/18 01:30:00;;;;;;;36.42;22.85;;;4.30;99.90;;;;;;5154463;27;20411;-45
2023/11/18 01:32:25;;;;;;;43.13;24.08;;;4.30;99.90;;;;;;5154388;27;20026;-45
2023/11/18 01:34:53;;;;;;;38.75;22.52;;;4.20;99.90;;;;;;5154723;27;20110;-42
2023/11/18 01:37:21;;;;;;;40.15;24.10;;;4.30;99.90;;;;;;5154487;27;20046;-44
2023/11/18 01:39:47;;;;;;;41.42;24.08;;;4.30;99.90;;;;;;5154444;27;20408;-45
2023/11/18 01:42:12;;;;;;;48.40;27.42;;;4.30;99.90;;;;;;5154052;27;20041;-43
2023/11/18 01:44:38;;;;;;;41.25;24.48;;;4.30;99.90;;;;;;5148943;27;20047;-44
2023/11/18 01:47:06;;;;;;;45.70;25.30;;;4.30;99.90;;;;;;5148861;27;20102;-42
2023/11/18 01:49:37;;;;;;;43.25;26.23;;;4.30;99.90;;;;;;5150771;27;20046;-47
2023/11/18 01:52:03;;;;;;;43.35;25.65;;;4.30;99.90;;;;;;5147920;27;20034;-44
2023/11/18 01:54:30;;;;;;;45.25;25.80;;;4.30;99.90;;;;;;5125307;27;20113;-44
2023/11/18 01:56:56;;;;;;;44.00;26.15;;;4.30;99.90;;;;;;5154173;27;20504;-44
2023/11/18 01:59:22;;;;;;;49.35;27.25;;;4.30;99.90;;;;;;5153439;27;20035;-43
2023/11/18 02:01:53;;;;;;;43.55;25.08;;;4.30;99.90;;;;;;5153833;27;20373;-43
2023/11/18 02:04:20;;;;;;;47.55;28.00;;;4.30;99.90;;;;;;5154239;27;20540;-43
2023/11/18 02:06:48;;;;;;;48.05;28.52;;;4.30;99.90;;;;;;5154338;27;20027;-44
2023/11/18 02:09:28;;;;;;;55.08;29.17;;;4.20;99.90;;;;;;5153886;27;20038;-45
2023/11/18 02:12:26;;;;;;;42.50;25.80;;;4.30;99.90;;;;;;5153875;27;20049;-43
2023/11/18 02:14:54;;;;;;;46.50;27.00;;;4.40;99.90;;;;;;5147919;27;20046;-44
2023/11/18 02:17:24;;;;;;;54.83;28.38;;;4.40;99.90;;;;;;5145494;27;20046;-45
2023/11/18 02:19:55;;;;;;;44.05;25.90;;;4.20;99.90;;;;;;5149244;27;20043;-43
2023/11/18 02:22:22;;;;;;;48.40;26.95;;;4.40;99.90;;;;;;5137342;27;20042;-45
2023/11/18 02:24:48;;;;;;;37.15;22.92;;;4.40;99.90;;;;;;5151891;27;20467;-43
2023/11/18 02:27:14;;;;;;;44.13;24.52;;;4.30;99.90;;;;;;5142442;27;20472;-43
2023/11/18 02:29:43;;;;;;;47.05;25.55;;;4.30;99.90;;;;;;5153385;27;20078;-46
2023/11/18 02:32:26;;;;;;;51.03;25.00;;;4.30;99.90;;;;;;5153625;27;20380;-42
2023/11/18 02:35:37;;;;;;;40.70;23.83;;;4.20;99.90;;;;;;5153448;27;20397;-44
2023/11/18 02:38:04;;;;;;;134.98;26.83;;;4.30;99.90;;;;;;5131626;27;20514;-44
2023/11/18 02:40:36;;;;;;;57.50;24.60;;;4.30;99.90;;;;;;5152018;27;20109;-42
2023/11/18 02:43:05;;;;;;;41.00;21.30;;;4.20;99.90;;;;;;5107178;28;20043;-43
2023/11/18 02:45:32;;;;;;;122.97;24.33;;;4.20;99.90;;;;;;5123499;27;20052;-43
2023/11/18 02:47:57;;;;;;;49.28;20.63;;;4.20;99.90;;;;;;5132666;27;20582;-44
2023/11/18 02:50:30;;;;;;;116.03;25.67;;;4.10;99.90;;;;;;5124696;28;20031;-42
2023/11/18 02:52:55;;;;;;;105.22;23.67;;;4.10;99.90;;;;;;5104861;28;20067;-46
2023/11/18 02:55:22;;;;;;;122.47;25.13;;;4.00;99.90;;;;;;5107715;28;20110;-43
2023/11/18 02:57:49;;;;;;;118.93;25.45;;;4.40;99.90;;;;;;5131375;28;20043;-43
2023/11/18 03:00:22;;;;;;;82.10;22.23;;;4.00;99.90;;;;;;5132413;28;20039;-45
2023/11/18 03:02:49;;;;;;;50.03;22.13;;;4.00;99.90;;;;;;5114653;28;20061;-43
2023/11/18 03:05:15;;;;;;;80.55;22.67;;;3.90;99.90;;;;;;5132505;28;20054;-46
2023/11/18 03:07:42;;;;;;;192.02;26.40;;;3.90;99.90;;;;;;5132570;28;20383;-44
2023/11/18 03:10:20;;;;;;;90.32;23.42;;;3.90;99.90;;;;;;5133997;27;20039;-42
2023/11/18 03:12:49;;;;;;;142.02;24.48;;;3.90;99.90;;;;;;5118252;27;20079;-45
2023/11/18 03:15:18;;;;;;;;;;;3.90;99.90;;;;;;5130240;27;20027;-46
2023/11/18 03:17:50;;;;;;;154.98;26.65;;;4.00;99.90;;;;;;5131755;27;19916;-42
2023/11/18 03:20:17;;;;;;;100.47;24.58;;;3.90;99.90;;;;;;5095358;28;20043;-44
2023/11/18 03:22:44;;;;;;;57.80;21.92;;;3.90;99.90;;;;;;5130605;27;20049;-43
2023/11/18 03:25:11;;;;;;;79.85;24.27;;;3.90;99.90;;;;;;5136632;27;20039;-43
2023/11/18 03:27:37;;;;;;;90.57;24.67;;;3.90;99.90;;;;;;5136620;27;20043;-47
2023/11/18 03:30:03;;;;;;;210.70;29.77;;;4.00;99.90;;;;;;5136625;27;20060;-45
2023/11/18 03:32:28;;;;;;;62.42;25.95;;;4.00;99.90;;;;;;5124279;27;20084;-44
2023/11/18 03:34:54;;;;;;;57.40;24.65;;;3.90;99.90;;;;;;5124584;27;20031;-43
2023/11/18 03:37:23;;;;;;;154.65;27.95;;;4.00;99.90;;;;;;5113203;27;20035;-44
2023/11/18 03:39:48;;;;;;;138.90;26.38;;;4.00;99.90;;;;;;5135956;27;20118;-42
2023/11/18 03:42:15;;;;;;;126.32;28.05;;;4.00;99.90;;;;;;5110469;27;20123;-43
2023/11/18 03:44:41;;;;;;;125.68;27.52;;;4.00;99.90;;;;;;5135830;27;20047;-43
2023/11/18 03:47:07;;;;;;;77.93;25.25;;;4.10;99.90;;;;;;5135684;27;20043;-42
2023/11/18 03:49:32;;;;;;;61.70;25.40;;;4.20;99.90;;;;;;5123290;27;20047;-44
2023/11/18 03:51:58;;;;;;;68.43;27.00;;;4.10;99.90;;;;;;5107399;28;20035;-46
2023/11/18 03:54:24;;;;;;;60.33;25.10;;;4.20;99.90;;;;;;5114985;28;20034;-42
2023/11/18 03:56:50;;;;;;;117.57;26.42;;;4.20;99.90;;;;;;5115196;28;20435;-44
2023/11/18 03:59:16;;;;;;;189.85;31.50;;;4.20;99.90;;;;;;5115097;28;20043;-43
2023/11/18 04:01:41;;;;;;;114.85;27.05;;;4.10;99.90;;;;;;5114969;28;20378;-43
2023/11/18 04:04:07;;;;;;;156.52;28.45;;;4.10;99.90;;;;;;5115062;28;20129;-43
2023/11/18 04:06:33;;;;;;;69.82;25.45;;;4.10;99.90;;;;;;5109220;28;20114;-42
2023/11/18 04:08:58;;;;;;;125.57;27.23;;;4.10;99.90;;;;;;5114400;28;20384;-45
2023/11/18 04:11:24;;;;;;;84.13;27.17;;;4.20;99.90;;;;;;5096911;28;20473;-43
2023/11/18 04:13:50;;;;;;;113.07;26.77;;;4.20;99.90;;;;;;5115185;28;20043;-46
2023/11/18 04:16:16;;;;;;;50.60;24.00;;;4.20;99.90;;;;;;5114834;28;20050;-42
2023/11/18 04:18:44;;;;;;;58.72;25.98;;;4.20;99.90;;;;;;5114746;28;20036;-45
2023/11/18 04:21:10;;;;;;;91.57;27.70;;;4.20;99.90;;;;;;5114458;28;20469;-45
2023/11/18 04:23:40;;;;;;;78.40;24.67;;;4.20;99.90;;;;;;5099987;28;20101;-42
2023/11/18 04:26:07;;;;;;;156.30;30.48;;;4.20;99.90;;;;;;5114746;28;20043;-43
2023/11/18 04:28:33;;;;;;;92.63;26.05;;;4.10;99.90;;;;;;5114662;28;20043;-43
2023/11/18 04:30:59;;;;;;;77.18;26.05;;;4.20;99.90;;;;;;5115025;28;20460;-45
2023/11/18 04:33:25;;;;;;;111.28;28.52;;;4.20;99.90;;;;;;5114448;28;20493;-45
2023/11/18 04:35:51;;;;;;;91.25;26.90;;;4.10;99.90;;;;;;5114431;28;20035;-43
2023/11/18 04:38:18;;;;;;;77.13;27.13;;;4.10;99.90;;;;;;5114531;28;20039;-42
2023/11/18 04:40:47;;;;;;;101.72;28.70;;;4.20;99.90;;;;;;5108398;28;20078;-42
2023/11/18 04:43:12;;;;;;;127.78;29.85;;;4.20;99.90;;;;;;5106760;28;20524;-42
2023/11/18 04:45:39;;;;;;;81.20;28.02;;;4.20;99.90;;;;;;5113475;28;20052;-43
2023/11/18 04:48:05;;;;;;;56.00;27.38;;;4.30;99.90;;;;;;5114199;28;20061;-42
2023/11/18 04:50:32;;;;;;;91.47;28.77;;;4.30;99.90;;;;;;5095784;28;20500;-42
2023/11/18 04:52:58;;;;;;;93.55;27.80;;;4.20;99.90;;;;;;5114023;28;20046;-43
2023/11/18 04:55:27;;;;;;;60.13;27.67;;;4.20;99.90;;;;;;5113893;28;20035;-46
2023/11/18 04:57:53;;;;;;;66.75;27.23;;;4.30;99.90;;;;;;5113986;28;20043;-46
2023/11/18 05:00:19;;;;;;;65.82;28.00;;;4.40;99.90;;;;;;5095777;28;20044;-46
2023/11/18 05:02:48;;;;;;;80.95;30.08;;;4.30;99.90;;;;;;5113682;28;20044;-46
2023/11/18 05:05:15;;;;;;;59.33;27.52;;;4.30;99.90;;;;;;5113806;28;20737;-52
2023/11/18 05:07:42;;;;;;;54.38;27.58;;;4.40;99.90;;;;;;5113475;28;20032;-47
2023/11/18 05:10:09;;;;;;;69.38;27.65;;;4.50;99.90;;;;;;5113949;28;20043;-43
2023/11/18 05:12:35;;;;;;;58.03;29.30;;;4.40;99.90;;;;;;5113795;28;20035;-43
2023/11/18 05:15:02;;;;;;;60.08;27.92;;;4.50;99.90;;;;;;5095429;28;20035;-44
2023/11/18 05:17:29;;;;;;;57.35;28.00;;;4.40;99.90;;;;;;5113365;28;20040;-43
2023/11/18 05:19:55;;;;;;;103.18;32.47;;;4.30;99.90;;;;;;5113891;28;20050;-42
2023/11/18 05:22:21;;;;;;;58.00;27.73;;;4.30;99.90;;;;;;5113704;28;20118;-46
2023/11/18 05:24:47;;;;;;;109.43;30.80;;;4.40;99.90;;;;;;5113336;28;20485;-48
2023/11/18 05:27:14;;;;;;;50.20;27.08;;;4.40;99.90;;;;;;5113612;28;20097;-42
2023/11/18 05:29:47;;;;;;;60.80;28.67;;;4.40;99.90;;;;;;5113347;28;20399;-58
2023/11/18 05:32:13;;;;;;;86.15;28.27;;;4.40;99.90;;;;;;5113509;28;20071;-47
2023/11/18 05:34:39;;;;;;;82.43;28.38;;;4.50;99.90;;;;;;5112542;28;20105;-44
2023/11/18 05:37:04;;;;;;;64.78;28.35;;;4.30;99.90;;;;;;5122748;27;20032;-42
2023/11/18 05:39:31;;;;;;;88.22;28.60;;;4.40;99.90;;;;;;5133746;27;20031;-44
2023/11/18 05:41:59;;;;;;;98.88;28.35;;;4.50;99.90;;;;;;5103244;27;20032;-45
2023/11/18 05:44:30;;;;;;;68.47;28.77;;;4.50;99.90;;;;;;5113209;28;20042;-43
2023/11/18 05:46:59;;;;;;;73.28;29.10;;;4.60;99.90;;;;;;5113258;28;20849;-46
2023/11/18 05:49:25;;;;;;;104.72;29.48;;;4.50;99.90;;;;;;5113078;28;20038;-44
2023/11/18 05:51:51;;;;;;;82.38;28.65;;;4.50;99.90;;;;;;5120421;27;20039;-47
2023/11/18 05:54:17;;;;;;;127.25;31.88;;;4.60;99.90;;;;;;5133700;27;20552;-48
2023/11/18 05:56:43;;;;;;;65.28;28.00;;;4.60;99.90;;;;;;5133531;27;20053;-42
2023/11/18 05:59:10;;;;;;;69.65;28.23;;;4.60;99.90;;;;;;5133285;27;20557;-44
2023/11/18 06:01:39;;;;;;;78.30;28.83;;;4.60;99.90;;;;;;5133327;27;20031;-43
2023/11/18 06:04:08;;;;;;;;;;;4.60;99.90;;;;;;5134006;27;20468;-44
2023/11/18 06:06:34;;;;;;;95.72;27.45;;;4.70;99.90;;;;;;5130622;27;21112;-43
2023/11/18 06:09:04;;;;;;;59.60;28.42;;;4.60;99.90;;;;;;5121716;27;20050;-44
2023/11/18 06:11:31;;;;;;;105.45;29.77;;;4.70;99.90;;;;;;5133028;27;20069;-43
2023/11/18 06:13:58;;;;;;;63.30;27.73;;;4.70;99.90;;;;;;5133041;27;20047;-46
2023/11/18 06:16:25;;;;;;;69.05;28.88;;;4.70;99.90;;;;;;5131009;27;20047;-46
2023/11/18 06:18:55;;;;;;;69.50;28.98;;;4.60;99.90;;;;;;5121142;27;20062;-44
2023/11/18 06:21:29;;;;;;;72.38;28.58;;;4.70;99.90;;;;;;5132947;27;20047;-45
2023/11/18 06:23:57;;;;;;;73.38;28.48;;;4.70;99.90;;;;;;5115492;27;20043;-45
2023/11/18 06:26:26;;;;;;;89.38;30.40;;;4.60;99.90;;;;;;5132672;27;20123;-43
2023/11/18 06:28:55;;;;;;;52.92;27.15;;;4.60;99.90;;;;;;5114650;27;20031;-46
2023/11/18 06:31:23;;;;;;;58.75;27.00;;;4.60;99.90;;;;;;5132994;27;20067;-43
2023/11/18 06:33:49;;;;;;;79.30;30.15;;;4.70;99.90;;;;;;5132739;27;20039;-50
2023/11/18 06:36:18;;;;;;;55.20;27.30;;;4.60;99.90;;;;;;5133071;27;20038;-45
2023/11/18 06:38:45;;;;;;;52.03;28.27;;;4.70;99.90;;;;;;5114468;27;20612;-43
2023/11/18 06:41:13;;;;;;;55.17;27.52;;;4.70;99.90;;;;;;5112902;27;20047;-43
2023/11/18 06:46:15;;;;;;;56.38;28.27;;;4.80;99.90;;;;;;5132420;27;20051;-44
2023/11/18 06:48:40;;;;;;;70.57;30.00;;;4.80;99.90;;;;;;5132578;27;20039;-45
2023/11/18 06:51:08;;;;;;;66.80;28.60;;;4.70;99.90;;;;;;5132355;28;20038;-55
2023/11/18 06:53:34;;;;;;;81.57;32.25;;;4.80;99.90;;;;;;5132461;28;20036;-56
2023/11/18 06:56:00;;;;;;;64.57;30.85;;;4.80;99.90;;;;;;5132411;28;20427;-58
2023/11/18 06:58:27;;;;;;;89.32;31.48;;;4.70;99.90;;;;;;5132612;28;20068;-57
2023/11/18 07:00:53;;;;;;;71.95;31.52;;;4.80;99.90;;;;;;5132432;28;20043;-54
2023/11/18 07:03:19;;;;;;;73.38;30.92;;;4.90;99.90;;;;;;5132334;28;20062;-52
2023/11/18 07:05:44;;;;;;;69.45;30.60;;;4.90;99.90;;;;;;5114203;28;20047;-53
2023/11/18 07:08:12;;;;;;;81.53;32.33;;;4.90;99.90;;;;;;5132061;28;20095;-55
2023/11/18 07:10:40;;;;;;;95.20;34.10;;;4.90;99.90;;;;;;5132567;28;20373;-55
2023/11/18 07:13:08;;;;;;;145.77;35.05;;;4.80;99.90;;;;;;5132300;28;20088;-54
2023/11/18 07:15:35;;;;;;;92.88;33.58;;;4.80;99.90;;;;;;5132389;28;20031;-54
2023/11/18 07:18:02;;;;;;;85.25;34.08;;;4.90;99.90;;;;;;5132089;28;20039;-52
2023/11/18 07:20:27;;;;;;;69.47;32.22;;;4.90;99.90;;;;;;5132122;28;20050;-57
2023/11/18 07:22:54;;;;;;;95.32;33.53;;;4.90;99.90;;;;;;5132339;28;20039;-51
2023/11/18 07:25:20;;;;;;;94.90;34.90;;;4.90;99.90;;;;;;5131896;28;20039;-52
2023/11/18 07:27:46;;;;;;;79.82;34.38;;;5.00;99.90;;;;;;5132043;28;20070;-55
2023/11/18 07:30:13;;;;;;;78.72;34.10;;;4.90;99.90;;;;;;5132252;28;20100;-55
2023/11/18 07:32:40;;;;;;;77.28;33.08;;;5.00;99.90;;;;;;5113965;28;20515;-52
2023/11/18 07:35:09;;;;;;;74.85;32.55;;;5.10;99.90;;;;;;5132147;28;20035;-52
2023/11/18 07:37:36;;;;;;;72.28;33.85;;;5.00;99.90;;;;;;5113639;28;20053;-56
2023/11/18 07:40:08;;;;;;;83.55;34.35;;;5.00;99.90;;;;;;5113238;28;20061;-57
2023/11/18 07:42:37;;;;;;;77.97;33.95;;;5.00;99.90;;;;;;5080296;28;20109;-55
2023/11/18 07:45:17;;;;;;;87.90;34.20;;;5.20;99.90;;;;;;5111530;28;20065;-57
2023/11/18 07:47:44;;;;;;;73.57;33.10;;;5.10;99.90;;;;;;5077191;28;20044;-55
2023/11/18 07:50:12;;;;;;;80.68;35.30;;;5.10;99.90;;;;;;5087189;28;20535;-58
2023/11/18 07:52:39;;;;;;;68.13;33.13;;;5.20;99.90;;;;;;5106594;28;20039;-59
2023/11/18 07:55:06;;;;;;;70.85;32.50;;;5.10;99.90;;;;;;5131777;28;20526;-55
2023/11/18 07:57:36;;;;;;;74.22;31.33;;;5.20;99.90;;;;;;5115537;27;20031;-57
2023/11/18 08:00:08;;;;;;;75.90;33.20;;;5.20;99.90;;;;;;5135545;27;20043;-52
2023/11/18 08:02:37;;;;;;;83.68;32.95;;;5.30;99.90;;;;;;5135720;27;20066;-52
2023/11/18 08:05:06;;;;;;;;;;;5.20;99.90;;;;;;5136061;27;20460;-56
2023/11/18 08:07:36;;;;;;;74.03;31.05;;;5.20;99.90;;;;;;5135664;27;20427;-55
2023/11/18 08:10:05;;;;;;;69.97;31.50;;;5.50;99.90;;;;;;5135624;27;20047;-51
2023/11/18 08:12:32;;;;;;;77.15;32.97;;;5.30;99.90;;;;;;5117015;27;20031;-55
2023/11/18 08:14:59;;;;;;;87.88;32.38;;;5.20;99.90;;;;;;5135511;27;20039;-57
2023/11/18 08:17:26;;;;;;;72.03;32.08;;;5.30;99.90;;;;;;5135591;27;20362;-54
2023/11/18 08:19:55;;;;;;;80.03;33.72;;;5.30;99.90;;;;;;5135356;27;20484;-56
2023/11/18 08:22:23;;;;;;;73.25;31.52;;;5.30;99.90;;;;;;5135370;27;20064;-53
2023/11/18 08:24:49;;;;;;;74.88;32.20;;;5.30;99.90;;;;;;5135222;27;20085;-53
2023/11/18 08:27:15;;;;;;;82.97;34.53;;;5.30;99.90;;;;;;5134929;27;20557;-50
2023/11/18 08:29:41;;;;;;;76.43;32.22;;;5.50;99.90;;;;;;5135322;27;20042;-55
2023/11/18 08:32:10;;;;;;;80.07;32.28;;;5.40;99.90;;;;;;5116883;27;20043;-50
2023/11/18 08:34:37;;;;;;;75.72;32.30;;;5.30;99.90;;;;;;5135039;27;20035;-52
2023/11/18 08:37:06;;;;;;;74.43;31.58;;;5.40;99.90;;;;;;5134927;27;20049;-53
2023/11/18 08:39:32;;;;;;;74.60;32.70;;;5.40;99.90;;;;;;5134901;27;20114;-52
2023/11/18 08:41:58;;;;;;;82.60;33.85;;;5.50;99.90;;;;;;5103717;27;20044;-59
2023/11/18 08:44:24;;;;;;;76.38;33.40;;;5.50;99.90;;;;;;5114431;28;20043;-57
2023/11/18 08:46:52;;;;;;;82.18;33.97;;;5.60;99.90;;;;;;5114201;28;20070;-54
2023/11/18 08:49:21;;;;;;;77.50;32.80;;;5.40;99.90;;;;;;5114306;28;20039;-54
2023/11/18 08:51:49;;;;;;;90.07;34.55;;;5.50;99.90;;;;;;5114547;28;20054;-53
2023/11/18 08:54:36;;;;;;;83.55;34.15;;;5.50;99.90;;;;;;5131536;27;20035;-56
2023/11/18 08:57:19;;;;;;;79.43;33.65;;;5.60;99.90;;;;;;5134580;27;20441;-56
2023/11/18 08:59:45;;;;;;;91.82;34.17;;;5.50;99.90;;;;;;5134307;27;20106;-54
2023/11/18 09:02:14;;;;;;;95.45;36.33;;;5.50;99.90;;;;;;5134387;27;20164;-54
2023/11/18 09:04:42;;;;;;;106.35;36.13;;;5.60;99.90;;;;;;5134643;27;20035;-51
2023/11/18 09:07:09;;;;;;;105.13;35.60;;;5.50;99.90;;;;;;5099263;27;20039;-57
2023/11/18 09:09:35;;;;;;;88.00;35.63;;;5.60;99.90;;;;;;5133931;27;20372;-55
2023/11/18 09:12:02;;;;;;;94.00;37.55;;;5.50;99.90;;;;;;5116061;27;20054;-55
2023/11/18 09:14:28;;;;;;;111.97;37.55;;;5.70;99.90;;;;;;5134208;27;20051;-55
2023/11/18 09:16:58;;;;;;;101.10;37.72;;;5.60;99.90;;;;;;5134120;27;20031;-56
2023/11/18 09:19:25;;;;;;;93.75;35.85;;;5.60;99.90;;;;;;5134250;27;20382;-55
2023/11/18 09:21:51;;;;;;;98.03;36.55;;;5.70;99.90;;;;;;5134231;27;20053;-56
2023/11/18 09:24:19;;;;;;;104.32;37.00;;;5.70;99.90;;;;;;5134360;27;20468;-52
2023/11/18 09:26:49;;;;;;;85.93;34.70;;;5.70;99.90;;;;;;5134053;27;20035;-54
2023/11/18 09:29:21;;;;;;;100.55;36.83;;;5.80;99.90;;;;;;5133846;27;20074;-57
2023/11/18 09:31:52;;;;;;;88.97;36.45;;;5.80;99.90;;;;;;5133606;27;20397;-52
2023/11/18 09:34:26;;;;;;;89.05;34.95;;;5.70;99.90;;;;;;5133938;27;20046;-56
2023/11/18 09:36:54;;;;;;;93.20;35.50;;;5.70;99.90;;;;;;5133622;27;20397;-50
2023/11/18 09:39:37;;;;;;;82.63;35.15;;;5.80;99.90;;;;;;5133813;27;20153;-56
2023/11/18 09:42:04;;;;;;;92.75;35.53;;;5.80;99.90;;;;;;5130510;27;20484;-55
2023/11/18 09:44:32;;;;;;;81.72;34.28;;;5.80;99.90;;;;;;5133290;27;20035;-55
2023/11/18 09:47:04;;;;;;;86.80;36.97;;;5.80;99.90;;;;;;5133673;27;20164;-54
2023/11/18 09:49:38;;;;;;;93.88;36.72;;;5.80;99.90;;;;;;5116029;27;20342;-55
2023/11/18 09:52:06;;;;;;;83.80;35.65;;;5.80;99.90;;;;;;5115369;27;20046;-53
2023/11/18 09:54:38;;;;;;;89.22;35.90;;;5.90;99.90;;;;;;5133187;27;20042;-55
2023/11/18 09:57:14;;;;;;;87.35;35.00;;;5.90;99.90;;;;;;5114993;27;20050;-52
2023/11/18 10:00:10;;;;;;;86.63;36.25;;;5.80;99.90;;;;;;5133184;27;20054;-54
2023/11/18 10:02:39;;;;;;;94.15;37.97;;;5.90;99.90;;;;;;5133727;27;20073;-54
2023/11/18 10:05:12;;;;;;;94.72;36.88;;;5.80;99.90;;;;;;5133162;27;20091;-55
2023/11/18 10:07:47;;;;;;;88.20;38.72;;;5.90;99.90;;;;;;5132985;27;20099;-54
2023/11/18 10:10:16;;;;;;;91.78;36.05;;;5.80;99.90;;;;;;5133087;27;20391;-55
2023/11/18 10:12:51;;;;;;;89.68;38.08;;;5.80;99.90;;;;;;5132918;27;20050;-59
2023/11/18 10:15:18;;;;;;;99.25;36.78;;;5.90;99.90;;;;;;5133064;27;20039;-54
2023/11/18 10:18:06;;;;;;;80.70;34.50;;;5.90;99.90;;;;;;5133096;27;20165;-56
2023/11/18 10:20:57;;;;;;;84.95;35.53;;;5.80;99.90;;;;;;5132443;27;20050;-51
2023/11/18 10:23:27;;;;;;;93.00;39.15;;;5.80;99.90;;;;;;5132955;27;20043;-58
2023/11/18 10:25:56;;;;;;;88.57;37.22;;;5.80;99.90;;;;;;5133229;27;20043;-54
2023/11/18 10:28:32;;;;;;;88.22;37.70;;;5.80;99.90;;;;;;5132787;27;20047;-57
2023/11/18 10:31:06;;;;;;;86.00;39.47;;;5.90;99.90;;;;;;5132977;27;20396;-51
2023/11/18 10:33:42;;;;;;;90.63;39.00;;;5.80;99.90;;;;;;5132521;27;20042;-55
2023/11/18 10:36:25;;;;;;;90.05;38.70;;;5.90;99.90;;;;;;5132590;27;20055;-54
2023/11/18 10:38:55;;;;;;;79.60;36.13;;;5.80;99.90;;;;;;5133184;27;20901;-58
2023/11/18 10:41:22;;;;;;;79.25;38.60;;;5.80;99.90;;;;;;5128226;27;20043;-55
2023/11/18 10:43:48;;;;;;;85.03;38.88;;;5.70;99.90;;;;;;5132620;27;20051;-54
2023/11/18 10:46:15;;;;;;;83.32;37.95;;;5.80;99.90;;;;;;5132339;27;20114;-54
2023/11/18 10:48:42;;;;;;;83.50;36.95;;;5.70;99.90;;;;;;5132358;27;20043;-52
2023/11/18 10:51:13;;;;;;;73.38;36.20;;;5.80;99.90;;;;;;5132540;27;20442;-55
2023/11/18 10:54:03;;;;;;;70.97;36.95;;;5.70;99.90;;;;;;5132336;28;20035;-54
2023/11/18 10:56:30;;;;;;;70.60;35.92;;;5.80;99.90;;;;;;5132465;28;20067;-43
2023/11/18 10:58:58;;;;;;;72.40;36.95;;;5.80;99.90;;;;;;5113898;28;20374;-44
2023/11/18 11:01:38;;;;;;;78.55;35.72;;;5.80;99.90;;;;;;5132341;28;20500;-44
2023/11/18 11:04:05;;;;;;;66.60;34.63;;;5.70;99.90;;;;;;5132570;28;20451;-45
2023/11/18 11:06:32;;;;;;;71.03;35.35;;;5.80;99.90;;;;;;5085615;28;20480;-44
2023/11/18 11:08:59;;;;;;;64.20;33.25;;;5.80;99.90;;;;;;5132320;28;20554;-47
2023/11/18 11:11:28;;;;;;;65.20;33.45;;;5.80;99.90;;;;;;5113955;28;20073;-44
2023/11/18 11:13:56;;;;;;;62.03;31.75;;;5.80;99.90;;;;;;5114342;28;20385;-43
2023/11/18 11:16:29;;;;;;;58.72;31.58;;;5.80;99.90;;;;;;5132254;28;20071;-43
2023/11/18 11:18:57;;;;;;;55.95;31.58;;;5.80;99.90;;;;;;5132751;28;20532;-45
2023/11/18 11:21:28;;;;;;;61.58;31.20;;;5.90;99.90;;;;;;5114154;28;20046;-43
2023/11/18 11:24:12;;;;;;;56.08;31.95;;;5.90;99.90;;;;;;5132394;28;20096;-43
2023/11/18 11:27:07;;;;;;;53.35;29.58;;;6.00;99.90;;;;;;5132319;28;20442;-45
2023/11/18 11:29:51;;;;;;;51.33;28.65;;;5.90;99.90;;;;;;5132436;28;20390;-43
2023/11/18 11:32:48;;;;;;;51.85;27.13;;;6.00;99.90;;;;;;5109345;27;20047;-45
2023/11/18 11:35:23;;;;;;;49.72;28.33;;;6.00;99.90;;;;;;5136266;27;20078;-50
2023/11/18 11:37:50;;;;;;;51.53;26.35;;;5.90;99.90;;;;;;5136207;27;20508;-47
2023/11/18 11:40:21;;;;;;;46.63;26.08;;;6.00;99.90;;;;;;5113494;27;20430;-44
2023/11/18 11:42:55;;;;;;;40.25;23.88;;;6.00;99.90;;;;;;5104098;28;20036;-46
2023/11/18 11:45:28;;;;;;;41.55;24.58;;;6.00;99.90;;;;;;5115368;28;20140;-44
2023/11/18 11:48:12;;;;;;;45.30;23.63;;;5.90;99.90;;;;;;5115517;28;20043;-47
2023/11/18 11:50:51;;;;;;;41.67;22.73;;;6.00;99.90;;;;;;5115153;28;20036;-45
2023/11/18 11:53:23;;;;;;;39.70;22.27;;;6.00;99.90;;;;;;5115325;28;20077;-44
2023/11/18 11:55:53;;;;;;;43.40;24.17;;;6.00;99.90;;;;;;5097147;28;20054;-47
2023/11/18 11:58:26;;;;;;;40.45;23.00;;;6.00;99.90;;;;;;5115069;28;20050;-44
2023/11/18 12:00:54;;;;;;;39.38;21.88;;;6.00;99.90;;;;;;5096607;28;20044;-46
2023/11/18 12:03:22;;;;;;;32.37;20.17;;;6.00;99.90;;;;;;5096969;28;20105;-43
2023/11/18 12:05:52;;;;;;;38.70;21.60;;;6.00;99.90;;;;;;5096980;28;20281;-47
2023/11/18 12:08:18;;;;;;;31.27;20.52;;;6.00;99.90;;;;;;5115058;28;20293;-44
2023/11/18 12:10:56;;;;;;;44.78;22.33;;;6.00;99.90;;;;;;5114854;28;20039;-45
2023/11/18 12:13:21;;;;;;;36.92;21.23;;;6.00;99.90;;;;;;5130941;27;20077;-45
2023/11/18 12:15:53;;;;;;;34.05;20.85;;;6.00;99.90;;;;;;5135779;27;20074;-44
2023/11/18 12:18:21;;;;;;;33.65;20.80;;;6.00;99.90;;;;;;5135129;27;20045;-43
2023/11/18 12:20:47;;;;;;;39.40;21.83;;;6.00;99.90;;;;;;5100167;27;20035;-44
2023/11/18 12:23:17;;;;;;;35.78;22.08;;;6.10;99.90;;;;;;5135680;27;20045;-44
2023/11/18 12:26:05;;;;;;;39.65;22.42;;;6.00;99.90;;;;;;5135188;27;20037;-45
2023/11/18 12:28:34;;;;;;;34.83;21.42;;;6.00;99.90;;;;;;5122774;27;20074;-43
2023/11/18 12:31:16;;;;;;;35.90;20.73;;;6.00;99.90;;;;;;5135069;27;20079;-44
2023/11/18 12:33:54;;;;;;;37.80;21.33;;;6.10;99.90;;;;;;5135040;27;20063;-45
2023/11/18 12:36:29;;;;;;;36.08;21.65;;;6.00;99.90;;;;;;5116832;27;20047;-43
2023/11/18 12:39:25;;;;;;;34.03;20.40;;;6.10;99.90;;;;;;5134925;27;20039;-50
2023/11/18 12:42:11;;;;;;;33.40;19.52;;;6.10;99.90;;;;;;5105250;27;20105;-44
2023/11/18 12:45:02;;;;;;;34.67;19.77;;;6.10;99.90;;;;;;5114024;28;20052;-49
2023/11/18 12:47:31;;;;;;;36.42;20.75;;;6.20;99.90;;;;;;5113912;28;20093;-43
2023/11/18 12:50:00;;;;;;;33.70;19.92;;;6.20;99.90;;;;;;5114445;28;20039;-45